Accueil
METAR-TAF:

METAR-TAF

Aéroports :

Aéroport Albert-Picardie

Albert, France

latitude: 49-58-21N, longitude: 002-41-29E, altitude: 111 m

Observation

Le bulletin a été fait il y a 25 minutes, à 12:00 UTC
Vent 4 kt de direction variable
Température 12°C
Humidité 54%
Pression 1018 hPa
Visibilité 10 km ou plus
Nuages épars à une hauteur de 4600 ft
Nuages fragmentés à une hauteur de 5400 ft
Ciel couvert à une hauteur de 6400 ft

METAR: LFAQ 031200Z AUTO VRB04KT 9999 SCT046 BKN054 OVC064 12/03 Q1018

Heure: 14:25 (12:25 UTC)

Prévision

Le bulletin a été fait il y a 22 heures et 25 minutes, à 14:00 UTC
Prévision valable du 02 à 15 UTC au 02 à 24 UTC
Vent 8 kt de ouest
Visibilité 10 km ou plus
Nuages fragmentés à une hauteur de 4000 ft

TAF: LFAQ 021400Z 0215/0224 26008KT 9999 BKN040

Observations et prévisions météorologiques de plus de 4000 aéroports (messages METAR et TAF).

Les stations disponibles sont représentées par des disques jaunes et rouges sur la carte.

Passer la souris dessus pour voir le nom de la station.

Cliquer dessus pour voir les observations et prévisions météorologiques.

Pour changer de carte: cliquez sur les boutons verts avec une croix noire pour zoomer, sur le bouton vert avec un tiret pour effectuer un zoom arrière, ou sur les flèches vertes pour les cartes adjacentes.


METAR-TAF: